Time;durP1;ratioP1;P1;durP2;ratioP2;P2;SDS_P1;SDS_P2;PMS_P1;PMS_P2;Temp;Humidity;BMP_temperature;BMP_pressure;BME280_temperature;BME280_humidity;BME280_pressure;Samples;Min_cycle;Max_cycle;Signal;HPM_P1;HPM_P2
2023/09/07 00:01:57;;;;;;;;;;;17.30;99.90;;;;;;4936590;29;19953;-72
2023/09/07 00:04:23;;;;;;;;;;;17.20;99.90;;;;;;4937034;29;19927;-72
2023/09/07 00:06:49;;;;;;;;;;;17.20;99.90;;;;;;4938167;29;20432;-72
2023/09/07 00:09:16;;;;;;;;;;;17.20;99.90;;;;;;4937409;29;19933;-72
2023/09/07 00:11:41;;;;;;;;;;;17.20;99.90;;;;;;4937495;28;19955;-72
2023/09/07 00:14:07;;;;;;;;;;;17.20;99.90;;;;;;4931920;29;19934;-72
2023/09/07 00:16:37;;;;;;;;;;;17.20;99.90;;;;;;4935736;28;19939;-72
2023/09/07 00:19:04;;;;;;;;;;;17.20;99.90;;;;;;4933556;29;19937;-72
2023/09/07 00:21:29;;;;;;;;;;;17.20;99.90;;;;;;4935989;29;19941;-72
2023/09/07 00:23:55;;;;;;;;;;;17.20;99.90;;;;;;4935413;28;19927;-72
2023/09/07 00:26:20;;;;;;;;;;;17.20;99.90;;;;;;4934031;28;19961;-72
2023/09/07 00:28:46;;;;;;;;;;;17.20;99.90;;;;;;4936869;29;19934;-72
2023/09/07 00:31:12;;;;;;;;;;;17.20;99.90;;;;;;4936699;28;20049;-72
2023/09/07 00:33:37;;;;;;;;;;;17.20;99.90;;;;;;4936164;28;19942;-73
2023/09/07 00:36:03;;;;;;;;;;;17.20;99.90;;;;;;4939224;29;19934;-73
2023/09/07 00:38:29;;;;;;;;;;;17.20;99.90;;;;;;4939090;28;19977;-73
2023/09/07 00:40:54;;;;;;;;;;;17.20;99.90;;;;;;4939218;29;19994;-73
2023/09/07 00:43:20;;;;;;;;;;;17.20;99.90;;;;;;4954381;29;19927;-72
2023/09/07 00:45:45;;;;;;;;;;;17.20;99.90;;;;;;4937924;29;19998;-72
2023/09/07 00:48:12;;;;;;;;;;;17.20;99.90;;;;;;4936489;29;19990;-73
2023/09/07 00:50:38;;;;;;;;;;;17.20;99.90;;;;;;4941118;28;19927;-74
2023/09/07 00:53:06;;;;;;;;;;;17.10;99.90;;;;;;4921579;28;19938;-73
2023/09/07 00:55:34;;;;;;;;;;;17.20;99.90;;;;;;4936136;28;20473;-72
2023/09/07 00:58:03;;;;;;;;;;;17.10;99.90;;;;;;4937313;29;19938;-72
2023/09/07 01:00:29;;;;;;;;;;;17.10;99.90;;;;;;4935829;28;19938;-73
2023/09/07 01:02:55;;;;;;;;;;;17.10;99.90;;;;;;4952006;28;19927;-72
2023/09/07 01:05:32;;;;;;;;;;;17.10;99.90;;;;;;4929111;29;19927;-72
2023/09/07 01:08:00;;;;;;;;;;;17.10;99.90;;;;;;4938147;28;19927;-73
2023/09/07 01:10:26;;;;;;;;;;;17.10;99.90;;;;;;4937473;28;20382;-72
2023/09/07 01:12:51;;;;;;;;;;;17.10;99.90;;;;;;4934770;29;19931;-73
2023/09/07 01:15:17;;;;;;;;;;;17.00;99.90;;;;;;4919635;29;19941;-73
2023/09/07 01:17:43;;;;;;;;;;;17.00;99.90;;;;;;4935795;28;19976;-73
2023/09/07 01:20:10;;;;;;;;;;;17.00;99.90;;;;;;4935744;28;19927;-72
2023/09/07 01:22:36;;;;;;;;;;;17.00;99.90;;;;;;4932164;29;19974;-72
2023/09/07 01:25:02;;;;;;;;;;;17.00;99.90;;;;;;4937236;28;19931;-73
2023/09/07 01:27:27;;;;;;;;;;;17.10;99.90;;;;;;4933514;29;19927;-73
2023/09/07 01:29:53;;;;;;;;;;;17.00;99.90;;;;;;4935298;29;19931;-73
2023/09/07 01:32:18;;;;;;;;;;;17.10;99.90;;;;;;4936341;28;19927;-72
2023/09/07 01:34:44;;;;;;;;;;;17.00;99.90;;;;;;4935946;28;19987;-73
2023/09/07 01:37:10;;;;;;;;;;;17.00;99.90;;;;;;4936638;29;19930;-72
2023/09/07 01:39:35;;;;;;;;;;;17.10;99.90;;;;;;4934702;29;19930;-72
2023/09/07 01:42:01;;;;;;;;;;;17.10;99.90;;;;;;4936130;29;19937;-72
2023/09/07 01:44:26;;;;;;;;;;;17.10;99.90;;;;;;4934447;29;19927;-72
2023/09/07 01:46:52;;;;;;;;;;;17.10;99.90;;;;;;4934925;29;20943;-73
2023/09/07 01:49:18;;;;;;;;;;;17.10;99.90;;;;;;4932855;28;19942;-73
2023/09/07 01:51:43;;;;;;;;;;;17.10;99.90;;;;;;4949279;28;19926;-73
2023/09/07 01:54:09;;;;;;;;;;;17.10;99.90;;;;;;4934136;29;19950;-73
2023/09/07 01:56:35;;;;;;;;;;;17.10;99.90;;;;;;4935291;28;19931;-73
2023/09/07 01:59:01;;;;;;;;;;;17.00;99.90;;;;;;4937179;29;20026;-73
2023/09/07 02:01:30;;;;;;;;;;;17.10;99.90;;;;;;4938295;28;19933;-72
2023/09/07 02:03:56;;;;;;;;;;;17.00;99.90;;;;;;4938795;29;19931;-73
2023/09/07 02:06:22;;;;;;;;;;;17.00;99.90;;;;;;4939752;29;20445;-72
2023/09/07 02:08:48;;;;;;;;;;;17.00;99.90;;;;;;4935753;28;19927;-73
2023/09/07 02:11:14;;;;;;;;;;;17.00;99.90;;;;;;4934475;28;19962;-72
2023/09/07 02:13:43;;;;;;;;;;;17.00;99.90;;;;;;4938383;29;19953;-73
2023/09/07 02:16:08;;;;;;;;;;;17.00;99.90;;;;;;4937353;28;20397;-72
2023/09/07 02:18:35;;;;;;;;;;;16.90;99.90;;;;;;4937954;28;19927;-72
2023/09/07 02:21:04;;;;;;;;;;;16.90;99.90;;;;;;4936078;29;19973;-73
2023/09/07 02:23:30;;;;;;;;;;;16.90;99.90;;;;;;4938725;28;19935;-72
2023/09/07 02:25:56;;;;;;;;;;;16.80;99.90;;;;;;4950660;28;19966;-73
2023/09/07 02:28:21;;;;;;;;;;;16.80;99.90;;;;;;4939606;28;20289;-73
2023/09/07 02:30:47;;;;;;;;;;;16.80;99.90;;;;;;4934250;28;19926;-72
2023/09/07 02:33:12;;;;;;;;;;;16.80;99.90;;;;;;4940330;28;20006;-73
2023/09/07 02:35:38;;;;;;;;;;;16.70;99.90;;;;;;4951620;28;19954;-72
2023/09/07 02:38:04;;;;;;;;;;;16.70;99.90;;;;;;4940883;29;19927;-73
2023/09/07 02:40:30;;;;;;;;;;;16.60;99.90;;;;;;4938613;28;20025;-73
2023/09/07 02:42:55;;;;;;;;;;;16.60;99.90;;;;;;4941821;29;19949;-73
2023/09/07 02:45:21;;;;;;;;;;;16.60;99.90;;;;;;4941008;28;19927;-73
2023/09/07 02:47:46;;;;;;;;;;;16.60;99.90;;;;;;4940532;28;19949;-73
2023/09/07 02:50:12;;;;;;;;;;;16.60;99.90;;;;;;4939558;28;20014;-73
2023/09/07 02:52:39;;;;;;;;;;;16.60;99.90;;;;;;4937711;29;19927;-72
2023/09/07 02:55:06;;;;;;;;;;;16.50;99.90;;;;;;4940315;28;20704;-73
2023/09/07 02:57:31;;;;;;;;;;;16.50;99.90;;;;;;4938196;28;19931;-72
2023/09/07 02:59:57;;;;;;;;;;;16.50;99.90;;;;;;4938509;28;20782;-72
2023/09/07 03:02:22;;;;;;;;;;;16.40;99.90;;;;;;4936748;29;19931;-72
2023/09/07 03:04:52;;;;;;;;;;;16.50;99.90;;;;;;4936750;29;19934;-73
2023/09/07 03:07:18;;;;;;;;;;;16.50;99.90;;;;;;4940345;29;19977;-72
2023/09/07 03:09:44;;;;;;;;;;;16.50;99.90;;;;;;4938513;29;19926;-72
2023/09/07 03:12:10;;;;;;;;;;;16.50;99.90;;;;;;4935064;28;19974;-72
2023/09/07 03:14:35;;;;;;;;;;;16.50;99.90;;;;;;4938039;29;19931;-72
2023/09/07 03:17:01;;;;;;;;;;;16.40;99.90;;;;;;4937195;28;19935;-72
2023/09/07 03:19:26;;;;;;;;;;;16.40;99.90;;;;;;4939827;28;20017;-89
2023/09/07 03:21:52;;;;;;;;;;;16.30;99.90;;;;;;4935635;29;19934;-88
2023/09/07 03:24:17;;;;;;;;;;;16.30;99.90;;;;;;4940839;29;20533;-88
2023/09/07 03:26:44;;;;;;;;;;;16.20;99.90;;;;;;4937642;29;19931;-89
2023/09/07 03:29:09;;;;;;;;;;;16.20;99.90;;;;;;4936892;28;20348;-90
2023/09/07 03:31:35;;;;;;;;;;;16.10;99.90;;;;;;4938472;29;19931;-89
2023/09/07 03:34:01;;;;;;;;;;;16.10;99.90;;;;;;4936216;29;19962;-90
2023/09/07 03:36:26;;;;;;;;;;;16.10;99.90;;;;;;4938038;28;19931;-90
2023/09/07 03:38:52;;;;;;;;;;;16.10;99.90;;;;;;4938045;28;20344;-91
2023/09/07 03:41:17;;;;;;;;;;;16.00;99.90;;;;;;4939358;29;19986;-90
2023/09/07 03:43:43;;;;;;;;;;;16.00;99.90;;;;;;4935842;29;19927;-90
2023/09/07 03:46:08;;;;;;;;;;;15.90;99.90;;;;;;4938393;29;20022;-91
2023/09/07 03:48:34;;;;;;;;;;;16.00;99.90;;;;;;4938538;29;19927;-90
2023/09/07 03:51:00;;;;;;;;;;;15.90;99.90;;;;;;4939393;28;19931;-91
2023/09/07 03:53:25;;;;;;;;;;;15.90;99.90;;;;;;4935723;29;19926;-89
2023/09/07 03:55:51;;;;;;;;;;;15.90;99.90;;;;;;4935834;29;19942;-91
2023/09/07 03:58:16;;;;;;;;;;;15.90;99.90;;;;;;4936008;29;19931;-89
2023/09/07 04:00:42;;;;;;;;;;;15.90;99.90;;;;;;4937781;28;19961;-89
2023/09/07 04:03:08;;;;;;;;;;;15.80;99.90;;;;;;4937848;28;19937;-90
2023/09/07 04:05:33;;;;;;;;;;;15.80;99.90;;;;;;4935483;28;19933;-90
2023/09/07 04:08:00;;;;;;;;;;;15.80;99.90;;;;;;4942357;29;19935;-90
2023/09/07 04:10:26;;;;;;;;;;;15.80;99.90;;;;;;4935509;28;19933;-89
2023/09/07 04:12:51;;;;;;;;;;;15.80;99.90;;;;;;4934984;29;19974;-90
2023/09/07 04:15:17;;;;;;;;;;;15.80;99.90;;;;;;4937756;29;19934;-89
2023/09/07 04:17:42;;;;;;;;;;;15.80;99.90;;;;;;4952098;28;20301;-91
2023/09/07 04:20:09;;;;;;;;;;;15.80;99.90;;;;;;4938273;29;19931;-89
2023/09/07 04:22:35;;;;;;;;;;;15.80;99.90;;;;;;4936692;29;19991;-89
2023/09/07 04:25:01;;;;;;;;;;;15.80;99.90;;;;;;4936778;28;20404;-90
2023/09/07 04:27:26;;;;;;;;;;;15.80;99.90;;;;;;4937063;29;19931;-90
2023/09/07 04:29:53;;;;;;;;;;;15.80;99.90;;;;;;4936650;28;19957;-92
2023/09/07 04:32:19;;;;;;;;;;;15.70;99.90;;;;;;4938313;28;19985;-90
2023/09/07 04:34:45;;;;;;;;;;;15.80;99.90;;;;;;4933605;29;19952;-91
2023/09/07 04:37:11;;;;;;;;;;;15.80;99.90;;;;;;4938608;29;20689;-90
2023/09/07 04:39:37;;;;;;;;;;;15.80;99.90;;;;;;4937116;29;19931;-91
2023/09/07 04:42:02;;;;;;;;;;;15.80;99.90;;;;;;4941283;28;19931;-90
2023/09/07 04:44:28;;;;;;;;;;;15.80;99.90;;;;;;4939791;29;20018;-90
2023/09/07 04:46:56;;;;;;;;;;;15.80;99.90;;;;;;4935495;29;19931;-91
2023/09/07 04:49:23;;;;;;;;;;;15.80;99.90;;;;;;4939103;29;20527;-90
2023/09/07 04:51:49;;;;;;;;;;;15.80;99.90;;;;;;4939603;29;19987;-92
2023/09/07 04:54:16;;;;;;;;;;;15.80;99.90;;;;;;4940262;29;19938;-91
2023/09/07 04:56:41;;;;;;;;;;;15.70;99.90;;;;;;4934112;29;19927;-90
2023/09/07 04:59:07;;;;;;;;;;;15.70;99.90;;;;;;4938496;29;19931;-90
2023/09/07 05:01:32;;;;;;;;;;;15.80;99.90;;;;;;4936937;28;19976;-92
2023/09/07 05:03:58;;;;;;;;;;;15.70;99.90;;;;;;4936785;29;19926;-91
2023/09/07 05:06:23;;;;;;;;;;;15.70;99.90;;;;;;4936450;29;20398;-90
2023/09/07 05:08:49;;;;;;;;;;;15.70;99.90;;;;;;4935664;29;20356;-92
2023/09/07 05:11:14;;;;;;;;;;;15.70;99.90;;;;;;4936553;28;20305;-89
2023/09/07 05:13:40;;;;;;;;;;;15.70;99.90;;;;;;4933233;29;19927;-91
2023/09/07 05:16:06;;;;;;;;;;;15.70;99.90;;;;;;4933698;29;19931;-91
2023/09/07 05:18:31;;;;;;;;;;;15.70;99.90;;;;;;4936181;29;19927;-89
2023/09/07 05:20:57;;;;;;;;;;;15.70;99.90;;;;;;4937777;29;19962;-91
2023/09/07 05:23:22;;;;;;;;;;;15.70;99.90;;;;;;4936558;29;19931;-90
2023/09/07 05:25:50;;;;;;;;;;;15.70;99.90;;;;;;4936647;29;19934;-90
2023/09/07 05:28:16;;;;;;;;;;;15.70;99.90;;;;;;4936945;28;19933;-90
2023/09/07 05:30:42;;;;;;;;;;;15.80;99.90;;;;;;4936504;29;19942;-90
2023/09/07 05:33:11;;;;;;;;;;;15.80;99.90;;;;;;4932882;28;19927;-91
2023/09/07 05:35:37;;;;;;;;;;;15.80;99.90;;;;;;4939626;28;19926;-91
2023/09/07 05:38:03;;;;;;;;;;;15.90;99.90;;;;;;4941438;28;22560;-91
2023/09/07 05:40:29;;;;;;;;;;;15.90;99.90;;;;;;4944354;29;19953;-91
2023/09/07 05:42:54;;;;;;;;;;;16.00;99.90;;;;;;4945245;28;20389;-92
2023/09/07 05:45:20;;;;;;;;;;;15.90;99.90;;;;;;4944715;29;19941;-90
2023/09/07 05:47:46;;;;;;;;;;;16.00;99.90;;;;;;4938852;29;20017;-90
2023/09/07 05:50:11;;;;;;;;;;;16.00;99.90;;;;;;4922774;29;19982;-89
2023/09/07 05:52:37;;;;;;;;;;;16.00;99.90;;;;;;4940526;29;19988;-89
2023/09/07 05:55:03;;;;;;;;;;;16.00;99.90;;;;;;4940001;29;19938;-91
2023/09/07 05:57:28;;;;;;;;;;;16.10;99.90;;;;;;4940382;29;19927;-90
2023/09/07 05:59:54;;;;;;;;;;;16.10;99.90;;;;;;4939877;28;19935;-90
2023/09/07 06:02:20;;;;;;;;;;;16.10;99.90;;;;;;4942457;29;19927;-93
2023/09/07 06:04:45;;;;;;;;;;;16.20;99.90;;;;;;4943565;28;19935;-92
2023/09/07 06:07:11;;;;;;;;;;;16.30;99.90;;;;;;4948607;29;19938;-92
2023/09/07 06:09:36;;;;;;;;;;;16.30;99.90;;;;;;4944151;29;19935;-91
2023/09/07 06:12:03;;;;;;;;;;;16.30;99.90;;;;;;4940690;29;19998;-91
2023/09/07 06:14:28;;;;;;;;;;;16.40;99.90;;;;;;4939291;29;19973;-92
2023/09/07 06:16:54;;;;;;;;;;;16.50;99.90;;;;;;4938785;29;19931;-92
2023/09/07 06:19:19;;;;;;;;;;;16.60;99.90;;;;;;4936488;28;19934;-90
2023/09/07 06:21:45;;;;;;;;;;;16.70;99.90;;;;;;4936850;28;19970;-89
2023/09/07 06:24:11;;;;;;;;;;;16.80;99.90;;;;;;4940660;28;19934;-91
2023/09/07 06:26:36;;;;;;;;;;;16.90;99.90;;;;;;4937665;29;19938;-92
2023/09/07 06:29:02;;;;;;;;;;;16.90;99.90;;;;;;4939116;28;19935;-91
2023/09/07 06:31:28;;;;;;;;;;;16.90;99.90;;;;;;4934670;29;19954;-91
2023/09/07 06:33:54;;;;;;;;;;;17.00;99.90;;;;;;4942696;29;19931;-91
2023/09/07 06:36:19;;;;;;;;;;;17.00;99.90;;;;;;4942224;29;19938;-90
2023/09/07 06:38:45;;;;;;;;;;;17.10;99.90;;;;;;4941162;28;19938;-89
2023/09/07 06:41:12;;;;;;;;;;;17.10;99.90;;;;;;4956500;28;19927;-89
2023/09/07 06:43:37;;;;;;;;;;;17.10;99.90;;;;;;4935904;28;20006;-89
2023/09/07 06:46:07;;;;;;;;;;;17.20;99.90;;;;;;4939944;29;19935;-90
2023/09/07 06:48:33;;;;;;;;;;;17.20;99.90;;;;;;4936143;28;19927;-90
2023/09/07 06:51:06;;;;;;;;;;;17.30;99.90;;;;;;4933487;28;19938;-90
2023/09/07 06:53:31;;;;;;;;;;;17.40;99.90;;;;;;4922928;29;20630;-91
2023/09/07 06:55:58;;;;;;;;;;;17.50;99.90;;;;;;4939905;28;19949;-91
2023/09/07 06:58:24;;;;;;;;;;;17.50;99.90;;;;;;4991124;28;19989;-94
2023/09/07 07:00:49;;;;;;;;;;;17.60;99.90;;;;;;4934118;29;19973;-92
2023/09/07 07:03:15;;;;;;;;;;;17.60;99.90;;;;;;4941220;28;19954;-92
2023/09/07 07:05:40;;;;;;;;;;;17.70;99.90;;;;;;4933688;29;19927;-92
2023/09/07 07:08:06;;;;;;;;;;;17.80;99.90;;;;;;4940915;29;19927;-90
2023/09/07 07:10:32;;;;;;;;;;;18.00;99.90;;;;;;4949773;28;19927;-91
2023/09/07 07:12:57;;;;;;;;;;;18.10;99.90;;;;;;4949631;28;19934;-91
2023/09/07 07:15:23;;;;;;;;;;;18.50;99.90;;;;;;4948335;28;19937;-93
2023/09/07 07:17:48;;;;;;;;;;;19.20;99.90;;;;;;4953868;28;19923;-93
2023/09/07 07:20:14;;;;;;;;;;;20.20;99.90;;;;;;4962361;28;19954;-92
2023/09/07 07:22:39;;;;;;;;;;;21.10;99.90;;;;;;4950732;28;19923;-94
2023/09/07 07:25:05;;;;;;;;;;;21.90;99.90;;;;;;4946320;28;19927;-93
2023/09/07 07:27:31;;;;;;;;;;;22.60;99.90;;;;;;4941740;28;19935;-93
2023/09/07 07:29:57;;;;;;;;;;;23.20;99.90;;;;;;4943527;29;19985;-93
2023/09/07 07:32:22;;;;;;;;;;;23.80;99.90;;;;;;4942602;29;20348;-93
2023/09/07 07:34:49;;;;;;;;;;;24.10;99.90;;;;;;4939396;29;19935;-93
2023/09/07 07:37:15;;;;;;;;;;;24.40;99.90;;;;;;4942266;29;19934;-93
2023/09/07 07:39:40;;;;;;;;;;;24.70;99.90;;;;;;4939216;29;19961;-92
2023/09/07 07:42:06;;;;;;;;;;;25.10;99.90;;;;;;4955686;28;19970;-92
2023/09/07 07:44:31;;;;;;;;;;;25.30;99.90;;;;;;4940592;29;20316;-89
2023/09/07 07:46:57;;;;;;;;;;;25.50;99.90;;;;;;4942502;29;19934;-90
2023/09/07 07:49:23;;;;;;;;;;;25.60;99.90;;;;;;4942161;29;19927;-89
2023/09/07 07:51:48;;;;;;;;;;;25.70;99.90;;;;;;4933203;28;20362;-90
2023/09/07 07:54:15;;;;;;;;;;;25.90;99.90;;;;;;4919979;28;19937;-90
2023/09/07 07:56:40;;;;;;;;;;;26.00;99.90;;;;;;4938307;28;19931;-90
2023/09/07 07:59:06;;;;;;;;;;;26.10;99.90;;;;;;4941534;28;19934;-90
2023/09/07 08:01:32;;;;;;;;;;;26.30;99.90;;;;;;4940869;29;19958;-89
2023/09/07 08:03:57;;;;;;;;;;;26.40;99.90;;;;;;4940345;29;20020;-90
2023/09/07 08:06:23;;;;;;;;;;;26.70;99.90;;;;;;4940282;28;20471;-92
2023/09/07 08:08:48;;;;;;;;;;;26.90;99.90;;;;;;4939708;28;19927;-90
2023/09/07 08:11:14;;;;;;;;;;;27.20;99.90;;;;;;4940135;29;19974;-90
2023/09/07 08:13:40;;;;;;;;;;;27.10;99.90;;;;;;4938956;28;19927;-90
2023/09/07 08:16:06;;;;;;;;;;;27.30;99.90;;;;;;4939902;29;19930;-90
2023/09/07 08:18:33;;;;;;;;;;;27.50;99.90;;;;;;4937666;29;20055;-90
2023/09/07 08:20:59;;;;;;;;;;;27.60;99.90;;;;;;4942018;29;19931;-92
2023/09/07 08:23:25;;;;;;;;;;;27.80;99.90;;;;;;4941196;29;19970;-91
2023/09/07 08:25:51;;;;;;;;;;;27.90;99.90;;;;;;4939132;28;19927;-91
2023/09/07 08:28:18;;;;;;;;;;;28.00;99.90;;;;;;4939771;29;19931;-91
2023/09/07 08:30:44;;;;;;;;;;;28.10;99.90;;;;;;4937868;28;19941;-90
2023/09/07 08:33:09;;;;;;;;;;;28.20;99.90;;;;;;4942107;29;19958;-91
2023/09/07 08:35:35;;;;;;;;;;;28.30;99.90;;;;;;4938965;28;20305;-91
2023/09/07 08:38:04;;;;;;;;;;;28.30;99.90;;;;;;4944289;29;20288;-92
2023/09/07 08:40:30;;;;;;;;;;;28.30;99.90;;;;;;4942383;29;19930;-93
2023/09/07 08:42:56;;;;;;;;;;;28.40;99.90;;;;;;4941158;29;19927;-94
2023/09/07 08:45:23;;;;;;;;;;;28.50;99.90;;;;;;4933185;28;20025;-94
2023/09/07 08:47:50;;;;;;;;;;;28.60;99.90;;;;;;4940569;29;19958;-93
2023/09/07 08:50:17;;;;;;;;;;;28.70;99.90;;;;;;4937972;28;20437;-91
2023/09/07 08:52:45;;;;;;;;;;;28.80;99.90;;;;;;4941324;28;19930;-95
2023/09/07 08:55:11;;;;;;;;;;;28.90;99.90;;;;;;4940139;29;19930;-93
2023/09/07 08:57:37;;;;;;;;;;;29.00;99.90;;;;;;4936699;28;19931;-92
2023/09/07 09:00:07;;;;;;;;;;;29.10;99.90;;;;;;4923692;28;19931;-92
2023/09/07 09:02:32;;;;;;;;;;;29.10;99.90;;;;;;4955555;29;19934;-92
2023/09/07 09:04:59;;;;;;;;;;;29.20;99.90;;;;;;4939968;28;19934;-93
2023/09/07 09:07:24;;;;;;;;;;;29.10;99.90;;;;;;4940181;28;19927;-92
2023/09/07 09:09:50;;;;;;;;;;;29.00;99.90;;;;;;4939121;29;19927;-93
2023/09/07 09:12:15;;;;;;;;;;;29.00;99.90;;;;;;4939860;28;19926;-93
2023/09/07 09:14:44;;;;;;;;;;;29.10;99.90;;;;;;4938828;28;19927;-92
2023/09/07 09:17:14;;;;;;;;;;;29.20;99.90;;;;;;4938073;28;19934;-91
2023/09/07 09:19:41;;;;;;;;;;;29.10;99.90;;;;;;4940489;29;19930;-91
2023/09/07 09:22:07;;;;;;;;;;;29.20;99.80;;;;;;4925591;29;19926;-90
2023/09/07 09:24:34;;;;;;;;;;;29.40;99.80;;;;;;4940953;29;19945;-90
2023/09/07 09:26:59;;;;;;;;;;;29.60;99.90;;;;;;4938063;29;19935;-90
2023/09/07 09:29:25;;;;;;;;;;;29.80;99.90;;;;;;4940304;28;19933;-89
2023/09/07 09:31:51;;;;;;;;;;;29.90;98.90;;;;;;4938789;28;19988;-92
2023/09/07 09:34:17;;;;;;;;;;;30.00;99.90;;;;;;4938110;29;19927;-90
2023/09/07 09:36:43;;;;;;;;;;;30.20;98.50;;;;;;4939018;29;19978;-91
2023/09/07 09:39:09;;;;;;;;;;;30.30;98.70;;;;;;4935823;28;19927;-92
2023/09/07 09:41:35;;;;;;;;;;;30.30;97.20;;;;;;4943217;29;19926;-94
2023/09/07 09:44:02;;;;;;;;;;;30.40;98.10;;;;;;4941291;29;19933;-92
2023/09/07 09:46:28;;;;;;;;;;;30.50;97.20;;;;;;4945991;28;19927;-92
2023/09/07 09:48:54;;;;;;;;;;;30.50;96.80;;;;;;4947666;29;20237;-92
2023/09/07 09:51:20;;;;;;;;;;;30.60;97.50;;;;;;4939089;29;19973;-92
2023/09/07 09:53:46;;;;;;;;;;;30.60;96.90;;;;;;4942114;28;19938;-93
2023/09/07 09:56:12;;;;;;;;;;;30.70;95.20;;;;;;4944564;29;19934;-92
2023/09/07 09:58:38;;;;;;;;;;;30.90;98.10;;;;;;4930276;29;19989;-94
2023/09/07 10:01:05;;;;;;;;;;;30.90;96.20;;;;;;4937361;29;19930;-92
2023/09/07 10:03:32;;;;;;;;;;;31.10;95.40;;;;;;4933957;29;19928;-92
2023/09/07 10:06:08;;;;;;;;;;;31.10;94.80;;;;;;4932960;28;19973;-92
2023/09/07 10:08:34;;;;;;;;;;;31.30;93.80;;;;;;4990372;28;19927;-92
2023/09/07 10:10:59;;;;;;;;;;;31.10;94.20;;;;;;4926643;29;19932;-93
2023/09/07 10:13:29;;;;;;;;;;;31.00;95.40;;;;;;4930052;29;19927;-93
2023/09/07 10:16:07;;;;;;;;;;;30.80;95.60;;;;;;4937444;28;19931;-94
2023/09/07 10:18:37;;;;;;;;;;;30.60;94.50;;;;;;4934311;29;19938;-94
2023/09/07 10:21:02;;;;;;;;;;;30.30;92.10;;;;;;4941172;29;19937;-94
2023/09/07 10:23:38;;;;;;;;;;;29.90;95.20;;;;;;5024795;28;20018;-93
2023/09/07 10:26:04;;;;;;;;;;;29.70;96.30;;;;;;4929238;29;19926;-92
2023/09/07 10:28:30;;;;;;;;;;;29.50;93.60;;;;;;4931575;29;20357;-93
2023/09/07 10:31:05;;;;;;;;;;;29.30;95.70;;;;;;4941114;29;19942;-92
2023/09/07 10:33:32;;;;;;;;;;;29.20;96.40;;;;;;4941871;29;19974;-92
2023/09/07 10:35:57;;;;;;;;;;;29.10;97.10;;;;;;4940379;29;19997;-92
2023/09/07 10:38:24;;;;;;;;;;;29.10;98.10;;;;;;4941810;29;19927;-92
2023/09/07 10:40:57;;;;;;;;;;;29.00;97.20;;;;;;4942431;29;19993;-93
2023/09/07 10:43:23;;;;;;;;;;;29.00;97.90;;;;;;4941494;29;19931;-92
2023/09/07 10:45:49;;;;;;;;;;;29.00;94.60;;;;;;4943144;28;20320;-92
2023/09/07 10:48:16;;;;;;;;;;;29.00;98.70;;;;;;4939004;29;20483;-91
2023/09/07 10:50:46;;;;;;;;;;;29.00;98.10;;;;;;5025451;28;20389;-93
2023/09/07 10:53:12;;;;;;;;;;;29.00;97.70;;;;;;4940122;29;19978;-93
2023/09/07 10:55:40;;;;;;;;;;;29.10;98.30;;;;;;4942116;29;19930;-93
2023/09/07 10:58:08;;;;;;;;;;;29.10;98.70;;;;;;4956710;29;19931;-94
2023/09/07 11:00:34;;;;;;;;;;;29.10;96.80;;;;;;4940521;29;19926;-95
2023/09/07 11:03:06;;;;;;;;;;;29.20;97.20;;;;;;4943263;29;19931;-92
2023/09/07 11:05:32;;;;;;;;;;;29.20;96.70;;;;;;4940187;29;20358;-93
2023/09/07 11:08:00;;;;;;;;;;;29.30;98.80;;;;;;4942434;29;19931;-94
2023/09/07 11:10:26;;;;;;;;;;;29.40;97.50;;;;;;4940676;29;19990;-93
2023/09/07 11:12:52;;;;;;;;;;;29.50;97.60;;;;;;4941946;29;19930;-94
2023/09/07 11:15:18;;;;;;;;;;;29.50;98.30;;;;;;4942646;28;19927;-93
2023/09/07 11:17:44;;;;;;;;;;;29.50;96.90;;;;;;4930324;28;19974;-93
2023/09/07 11:20:10;;;;;;;;;;;29.60;96.70;;;;;;4939323;29;19988;-93
2023/09/07 11:22:38;;;;;;;;;;;29.50;96.10;;;;;;4941191;28;19927;-92
2023/09/07 11:25:05;;;;;;;;;;;29.60;96.60;;;;;;4940870;29;20412;-93
2023/09/07 11:27:31;;;;;;;;;;;29.70;94.00;;;;;;4941166;29;19931;-93
2023/09/07 11:29:57;;;;;;;;;;;29.70;97.20;;;;;;4939575;29;19938;-93
2023/09/07 11:32:23;;;;;;;;;;;29.70;96.90;;;;;;4941135;29;20316;-93
2023/09/07 11:34:50;;;;;;;;;;;29.70;96.10;;;;;;4941156;28;19986;-94
2023/09/07 11:37:15;;;;;;;;;;;29.70;94.30;;;;;;4941227;28;19934;-94
2023/09/07 11:39:41;;;;;;;;;;;29.70;94.10;;;;;;4939940;29;19934;-93
2023/09/07 11:42:07;;;;;;;;;;;29.70;94.50;;;;;;4941168;29;19927;-93
2023/09/07 11:44:32;;;;;;;;;;;29.80;94.40;;;;;;4939793;29;19938;-92
2023/09/07 11:46:58;;;;;;;;;;;29.80;94.60;;;;;;4956200;29;20002;-92
2023/09/07 11:49:24;;;;;;;;;;;29.80;95.40;;;;;;4939939;29;19927;-91
2023/09/07 11:51:50;;;;;;;;;;;29.70;94.10;;;;;;4939135;28;19927;-94
2023/09/07 11:54:15;;;;;;;;;;;29.80;93.90;;;;;;4928271;29;20458;-92
2023/09/07 11:56:42;;;;;;;;;;;29.80;92.90;;;;;;4938475;29;19965;-93
2023/09/07 11:59:09;;;;;;;;;;;29.80;91.40;;;;;;4941818;29;19927;-88
2023/09/07 12:01:34;;;;;;;;;;;29.80;91.80;;;;;;4921787;29;19961;-87
2023/09/07 12:04:06;;;;;;;;;;;29.90;93.00;;;;;;4937334;28;20267;-87
2023/09/07 12:06:32;;;;;;;;;;;30.00;93.10;;;;;;4951170;28;19931;-87
2023/09/07 12:09:01;;;;;;;;;;;30.10;92.50;;;;;;4938073;28;20692;-90
2023/09/07 12:11:27;;;;;;;;;;;30.10;90.00;;;;;;4938881;29;20010;-88
2023/09/07 12:13:52;;;;;;;;;;;30.20;90.80;;;;;;4958950;28;19981;-87
2023/09/07 12:16:18;;;;;;;;;;;30.20;90.10;;;;;;4913194;28;19934;-88
2023/09/07 12:18:43;;;;;;;;;;;30.20;91.00;;;;;;4953932;28;19966;-88
2023/09/07 12:21:09;;;;;;;;;;;30.30;90.60;;;;;;4954492;29;20274;-88
2023/09/07 12:23:34;;;;;;;;;;;30.30;89.80;;;;;;4907139;29;19931;-87
2023/09/07 12:26:06;;;;;;;;;;;30.40;90.30;;;;;;4954768;29;19938;-88
2023/09/07 12:28:32;;;;;;;;;;;30.40;89.20;;;;;;4923375;28;19930;-89
2023/09/07 12:30:58;;;;;;;;;;;30.40;88.80;;;;;;4922064;29;20021;-91
2023/09/07 12:33:24;;;;;;;;;;;30.40;90.60;;;;;;4923191;28;20014;-89
2023/09/07 12:35:50;;;;;;;;;;;30.50;90.70;;;;;;4937266;28;20285;-89
2023/09/07 12:38:17;;;;;;;;;;;30.50;89.80;;;;;;4938749;29;19966;-89
2023/09/07 12:40:44;;;;;;;;;;;30.40;90.00;;;;;;4938777;28;19945;-89
2023/09/07 12:43:09;;;;;;;;;;;30.40;88.60;;;;;;4931425;28;19995;-89
2023/09/07 12:45:35;;;;;;;;;;;30.30;89.60;;;;;;4931977;28;20340;-89
2023/09/07 12:48:01;;;;;;;;;;;30.30;89.40;;;;;;4953464;29;19931;-89
2023/09/07 12:50:27;;;;;;;;;;;30.30;88.90;;;;;;4940011;28;20010;-89
2023/09/07 12:52:54;;;;;;;;;;;30.30;88.80;;;;;;4921071;29;19927;-89
2023/09/07 12:55:19;;;;;;;;;;;30.30;86.50;;;;;;4937469;29;20013;-89
2023/09/07 12:57:45;;;;;;;;;;;30.20;84.50;;;;;;4938501;29;20033;-88
2023/09/07 13:00:12;;;;;;;;;;;30.20;89.40;;;;;;4937912;29;19926;-87
2023/09/07 13:02:37;;;;;;;;;;;30.20;83.70;;;;;;4937903;29;19958;-88
2023/09/07 13:05:06;;;;;;;;;;;30.20;81.10;;;;;;4920511;28;20382;-89
2023/09/07 13:07:35;;;;;;;;;;;30.20;86.00;;;;;;4949458;28;19925;-94
2023/09/07 13:10:03;;;;;;;;;;;30.20;85.60;;;;;;4939141;29;19953;-93
2023/09/07 13:12:32;;;;;;;;;;;30.20;86.70;;;;;;4938739;29;19931;-93
2023/09/07 13:14:58;;;;;;;;;;;30.30;89.30;;;;;;4938804;29;19966;-93
2023/09/07 13:17:24;;;;;;;;;;;30.40;86.10;;;;;;4937966;29;19934;-93
2023/09/07 13:19:49;;;;;;;;;;;30.40;88.10;;;;;;4939627;29;19927;-94
2023/09/07 13:22:15;;;;;;;;;;;30.40;87.70;;;;;;4937663;29;19990;-95
2023/09/07 13:24:40;;;;;;;;;;;30.40;87.50;;;;;;4940851;29;19934;-93
2023/09/07 13:27:06;;;;;;;;;;;30.40;88.30;;;;;;4938169;28;19927;-94
2023/09/07 13:29:32;;;;;;;;;;;30.30;86.70;;;;;;4939081;29;20017;-92
2023/09/07 13:31:58;;;;;;;;;;;30.30;85.70;;;;;;4938473;29;19946;-94
2023/09/07 13:34:24;;;;;;;;;;;30.20;86.50;;;;;;4937976;29;19934;-94
2023/09/07 13:36:49;;;;;;;;;;;30.20;87.10;;;;;;4937815;29;19956;-94
2023/09/07 13:39:15;;;;;;;;;;;30.10;87.10;;;;;;4937653;29;19942;-92
2023/09/07 13:41:41;;;;;;;;;;;30.10;88.40;;;;;;4940524;29;20369;-91
2023/09/07 13:44:07;;;;;;;;;;;30.10;88.10;;;;;;4937556;28;19985;-91
2023/09/07 13:46:33;;;;;;;;;;;30.00;86.20;;;;;;4939156;29;19934;-90
2023/09/07 13:48:59;;;;;;;;;;;30.00;88.60;;;;;;4937050;28;20028;-90
2023/09/07 13:51:25;;;;;;;;;;;30.00;87.30;;;;;;4930069;29;19989;-90
2023/09/07 13:53:51;;;;;;;;;;;30.10;89.60;;;;;;4942842;28;20286;-90
2023/09/07 13:56:17;;;;;;;;;;;30.00;87.60;;;;;;4933036;28;19927;-90
2023/09/07 13:58:43;;;;;;;;;;;30.00;89.20;;;;;;4945442;29;19952;-91
2023/09/07 14:01:09;;;;;;;;;;;29.90;88.40;;;;;;4930173;29;19966;-91
2023/09/07 14:03:34;;;;;;;;;;;30.00;87.70;;;;;;4948723;29;19937;-92
2023/09/07 14:06:00;;;;;;;;;;;30.00;84.80;;;;;;4937307;28;19938;-86
2023/09/07 14:08:26;;;;;;;;;;;30.00;87.80;;;;;;4938267;29;19927;-87
2023/09/07 14:10:51;;;;;;;;;;;30.00;87.10;;;;;;4940038;29;19934;-85